sensor_id;sensor_type;location;lat;lon;timestamp;P1;durP1;ratioP1;P2;durP2;ratioP2
2858;SDS011;1437;53.250;10.406;2022-11-15T00:01:05;25.90;;;14.50;;
2858;SDS011;1437;53.250;10.406;2022-11-15T00:03:34;20.47;;;12.33;;
2858;SDS011;1437;53.250;10.406;2022-11-15T00:06:02;27.97;;;13.90;;
2858;SDS011;1437;53.250;10.406;2022-11-15T00:08:33;23.50;;;12.43;;
2858;SDS011;1437;53.250;10.406;2022-11-15T00:11:03;21.60;;;12.43;;
2858;SDS011;1437;53.250;10.406;2022-11-15T00:13:31;18.03;;;12.53;;
2858;SDS011;1437;53.250;10.406;2022-11-15T00:15:59;23.50;;;14.10;;
2858;SDS011;1437;53.250;10.406;2022-11-15T00:18:26;28.80;;;13.00;;
2858;SDS011;1437;53.250;10.406;2022-11-15T00:21:02;26.47;;;14.00;;
2858;SDS011;1437;53.250;10.406;2022-11-15T00:23:41;20.23;;;13.27;;
2858;SDS011;1437;53.250;10.406;2022-11-15T00:26:13;25.00;;;13.87;;
2858;SDS011;1437;53.250;10.406;2022-11-15T00:28:44;24.43;;;14.60;;
2858;SDS011;1437;53.250;10.406;2022-11-15T00:31:16;20.93;;;12.13;;
2858;SDS011;1437;53.250;10.406;2022-11-15T00:33:44;22.50;;;13.80;;
2858;SDS011;1437;53.250;10.406;2022-11-15T00:36:19;21.90;;;13.77;;
2858;SDS011;1437;53.250;10.406;2022-11-15T00:38:50;18.50;;;12.50;;
2858;SDS011;1437;53.250;10.406;2022-11-15T00:41:23;20.07;;;13.70;;
2858;SDS011;1437;53.250;10.406;2022-11-15T00:43:59;20.67;;;12.77;;
2858;SDS011;1437;53.250;10.406;2022-11-15T00:46:30;22.03;;;14.60;;
2858;SDS011;1437;53.250;10.406;2022-11-15T00:48:57;22.10;;;14.33;;
2858;SDS011;1437;53.250;10.406;2022-11-15T00:51:26;25.33;;;14.33;;
2858;SDS011;1437;53.250;10.406;2022-11-15T00:53:54;20.37;;;11.30;;
2858;SDS011;1437;53.250;10.406;2022-11-15T00:56:22;17.33;;;11.57;;
2858;SDS011;1437;53.250;10.406;2022-11-15T00:58:49;22.37;;;13.03;;
2858;SDS011;1437;53.250;10.406;2022-11-15T01:01:17;18.80;;;12.20;;
2858;SDS011;1437;53.250;10.406;2022-11-15T01:03:45;24.27;;;14.67;;
2858;SDS011;1437;53.250;10.406;2022-11-15T01:06:12;21.23;;;11.80;;
2858;SDS011;1437;53.250;10.406;2022-11-15T01:08:41;20.60;;;11.90;;
2858;SDS011;1437;53.250;10.406;2022-11-15T01:11:10;23.67;;;12.90;;
2858;SDS011;1437;53.250;10.406;2022-11-15T01:13:39;22.93;;;13.47;;
2858;SDS011;1437;53.250;10.406;2022-11-15T01:16:07;26.70;;;15.87;;
2858;SDS011;1437;53.250;10.406;2022-11-15T01:18:35;20.60;;;12.80;;
2858;SDS011;1437;53.250;10.406;2022-11-15T01:21:07;19.80;;;12.70;;
2858;SDS011;1437;53.250;10.406;2022-11-15T01:23:35;22.80;;;13.17;;
2858;SDS011;1437;53.250;10.406;2022-11-15T01:26:05;23.53;;;12.97;;
2858;SDS011;1437;53.250;10.406;2022-11-15T01:28:33;19.53;;;12.63;;
2858;SDS011;1437;53.250;10.406;2022-11-15T01:31:01;20.67;;;12.60;;
2858;SDS011;1437;53.250;10.406;2022-11-15T01:33:29;21.30;;;13.00;;
2858;SDS011;1437;53.250;10.406;2022-11-15T01:35:58;21.60;;;14.10;;
2858;SDS011;1437;53.250;10.406;2022-11-15T01:38:34;23.07;;;14.03;;
2858;SDS011;1437;53.250;10.406;2022-11-15T01:41:01;23.67;;;13.37;;
2858;SDS011;1437;53.250;10.406;2022-11-15T01:43:42;20.50;;;11.70;;
2858;SDS011;1437;53.250;10.406;2022-11-15T01:46:22;22.07;;;12.37;;
2858;SDS011;1437;53.250;10.406;2022-11-15T01:48:52;22.13;;;12.73;;
2858;SDS011;1437;53.250;10.406;2022-11-15T01:51:21;22.50;;;11.07;;
2858;SDS011;1437;53.250;10.406;2022-11-15T01:53:51;21.73;;;11.33;;
2858;SDS011;1437;53.250;10.406;2022-11-15T01:56:21;19.57;;;11.50;;
2858;SDS011;1437;53.250;10.406;2022-11-15T01:58:51;20.87;;;12.90;;
2858;SDS011;1437;53.250;10.406;2022-11-15T02:01:20;19.80;;;12.00;;
2858;SDS011;1437;53.250;10.406;2022-11-15T02:03:49;17.43;;;11.57;;
2858;SDS011;1437;53.250;10.406;2022-11-15T02:06:19;17.40;;;12.10;;
2858;SDS011;1437;53.250;10.406;2022-11-15T02:08:47;17.40;;;10.57;;
2858;SDS011;1437;53.250;10.406;2022-11-15T02:11:15;19.60;;;10.60;;
2858;SDS011;1437;53.250;10.406;2022-11-15T02:13:43;21.10;;;11.30;;
2858;SDS011;1437;53.250;10.406;2022-11-15T02:16:15;25.87;;;12.57;;
2858;SDS011;1437;53.250;10.406;2022-11-15T02:18:49;19.27;;;11.80;;
2858;SDS011;1437;53.250;10.406;2022-11-15T02:21:21;17.00;;;12.10;;
2858;SDS011;1437;53.250;10.406;2022-11-15T02:29:23;18.33;;;12.30;;
2858;SDS011;1437;53.250;10.406;2022-11-15T02:32:02;16.70;;;10.60;;
2858;SDS011;1437;53.250;10.406;2022-11-15T02:34:41;24.33;;;12.00;;
2858;SDS011;1437;53.250;10.406;2022-11-15T02:37:14;21.80;;;12.33;;
2858;SDS011;1437;53.250;10.406;2022-11-15T02:39:50;21.10;;;10.80;;
2858;SDS011;1437;53.250;10.406;2022-11-15T02:42:21;18.23;;;11.80;;
2858;SDS011;1437;53.250;10.406;2022-11-15T02:45:09;16.57;;;10.53;;
2858;SDS011;1437;53.250;10.406;2022-11-15T02:47:45;19.87;;;11.87;;
2858;SDS011;1437;53.250;10.406;2022-11-15T02:50:15;20.20;;;11.33;;
2858;SDS011;1437;53.250;10.406;2022-11-15T02:52:45;23.67;;;13.30;;
2858;SDS011;1437;53.250;10.406;2022-11-15T02:55:26;20.60;;;12.10;;
2858;SDS011;1437;53.250;10.406;2022-11-15T02:57:56;22.10;;;10.90;;
2858;SDS011;1437;53.250;10.406;2022-11-15T03:00:27;22.43;;;12.03;;
2858;SDS011;1437;53.250;10.406;2022-11-15T03:02:59;20.60;;;11.77;;
2858;SDS011;1437;53.250;10.406;2022-11-15T03:05:34;18.83;;;12.00;;
2858;SDS011;1437;53.250;10.406;2022-11-15T03:08:04;21.00;;;10.87;;
2858;SDS011;1437;53.250;10.406;2022-11-15T03:10:36;23.13;;;12.47;;
2858;SDS011;1437;53.250;10.406;2022-11-15T03:13:10;16.27;;;10.67;;
2858;SDS011;1437;53.250;10.406;2022-11-15T03:15:44;18.97;;;11.37;;
2858;SDS011;1437;53.250;10.406;2022-11-15T03:18:17;15.50;;;10.47;;
2858;SDS011;1437;53.250;10.406;2022-11-15T03:20:47;18.50;;;11.97;;
2858;SDS011;1437;53.250;10.406;2022-11-15T03:23:15;16.00;;;10.97;;
2858;SDS011;1437;53.250;10.406;2022-11-15T03:25:45;16.93;;;10.70;;
2858;SDS011;1437;53.250;10.406;2022-11-15T03:28:15;19.30;;;11.50;;
2858;SDS011;1437;53.250;10.406;2022-11-15T03:30:43;21.10;;;11.97;;
2858;SDS011;1437;53.250;10.406;2022-11-15T03:33:16;19.40;;;10.73;;
2858;SDS011;1437;53.250;10.406;2022-11-15T03:35:45;21.00;;;12.53;;
2858;SDS011;1437;53.250;10.406;2022-11-15T03:38:15;19.23;;;11.80;;
2858;SDS011;1437;53.250;10.406;2022-11-15T03:40:45;18.53;;;11.27;;
2858;SDS011;1437;53.250;10.406;2022-11-15T03:43:15;18.23;;;9.90;;
2858;SDS011;1437;53.250;10.406;2022-11-15T03:45:50;15.20;;;9.90;;
2858;SDS011;1437;53.250;10.406;2022-11-15T03:48:21;18.77;;;11.27;;
2858;SDS011;1437;53.250;10.406;2022-11-15T03:50:49;20.70;;;10.70;;
2858;SDS011;1437;53.250;10.406;2022-11-15T03:53:17;18.57;;;9.80;;
2858;SDS011;1437;53.250;10.406;2022-11-15T03:55:48;18.53;;;11.80;;
2858;SDS011;1437;53.250;10.406;2022-11-15T03:58:15;15.40;;;9.70;;
2858;SDS011;1437;53.250;10.406;2022-11-15T04:00:43;17.13;;;10.17;;
2858;SDS011;1437;53.250;10.406;2022-11-15T04:03:11;15.93;;;10.80;;
2858;SDS011;1437;53.250;10.406;2022-11-15T04:05:40;17.90;;;10.33;;
2858;SDS011;1437;53.250;10.406;2022-11-15T04:08:08;15.97;;;9.57;;
2858;SDS011;1437;53.250;10.406;2022-11-15T04:10:36;20.40;;;9.87;;
2858;SDS011;1437;53.250;10.406;2022-11-15T04:13:04;17.90;;;10.10;;
2858;SDS011;1437;53.250;10.406;2022-11-15T04:15:34;19.43;;;9.87;;
2858;SDS011;1437;53.250;10.406;2022-11-15T04:18:02;18.80;;;12.07;;
2858;SDS011;1437;53.250;10.406;2022-11-15T04:20:30;17.00;;;10.83;;
2858;SDS011;1437;53.250;10.406;2022-11-15T04:23:17;17.23;;;10.93;;
2858;SDS011;1437;53.250;10.406;2022-11-15T04:26:03;16.80;;;10.00;;
2858;SDS011;1437;53.250;10.406;2022-11-15T04:28:33;19.60;;;10.17;;
2858;SDS011;1437;53.250;10.406;2022-11-15T04:31:22;19.20;;;11.50;;
2858;SDS011;1437;53.250;10.406;2022-11-15T04:33:50;21.63;;;11.37;;
2858;SDS011;1437;53.250;10.406;2022-11-15T04:36:17;16.10;;;9.00;;
2858;SDS011;1437;53.250;10.406;2022-11-15T04:39:04;16.40;;;9.53;;
2858;SDS011;1437;53.250;10.406;2022-11-15T04:41:31;15.67;;;10.67;;
2858;SDS011;1437;53.250;10.406;2022-11-15T04:43:59;17.17;;;9.83;;
2858;SDS011;1437;53.250;10.406;2022-11-15T04:46:27;23.60;;;10.40;;
2858;SDS011;1437;53.250;10.406;2022-11-15T04:48:55;15.93;;;8.60;;
2858;SDS011;1437;53.250;10.406;2022-11-15T04:51:23;24.67;;;10.93;;
2858;SDS011;1437;53.250;10.406;2022-11-15T04:53:50;14.27;;;9.67;;
2858;SDS011;1437;53.250;10.406;2022-11-15T04:56:20;18.03;;;10.37;;
2858;SDS011;1437;53.250;10.406;2022-11-15T04:58:49;15.23;;;9.70;;
2858;SDS011;1437;53.250;10.406;2022-11-15T05:01:16;17.30;;;11.47;;
2858;SDS011;1437;53.250;10.406;2022-11-15T05:03:45;20.73;;;11.93;;
2858;SDS011;1437;53.250;10.406;2022-11-15T05:06:30;17.17;;;10.60;;
2858;SDS011;1437;53.250;10.406;2022-11-15T05:08:58;16.77;;;9.33;;
2858;SDS011;1437;53.250;10.406;2022-11-15T05:11:28;15.27;;;9.73;;
2858;SDS011;1437;53.250;10.406;2022-11-15T05:13:56;17.60;;;11.10;;
2858;SDS011;1437;53.250;10.406;2022-11-15T05:16:24;18.40;;;11.27;;
2858;SDS011;1437;53.250;10.406;2022-11-15T05:18:55;18.20;;;9.60;;
2858;SDS011;1437;53.250;10.406;2022-11-15T05:21:23;15.30;;;10.70;;
2858;SDS011;1437;53.250;10.406;2022-11-15T05:23:54;16.50;;;8.93;;
2858;SDS011;1437;53.250;10.406;2022-11-15T05:26:29;16.57;;;10.70;;
2858;SDS011;1437;53.250;10.406;2022-11-15T05:28:59;13.63;;;9.10;;
2858;SDS011;1437;53.250;10.406;2022-11-15T05:31:31;19.67;;;10.77;;
2858;SDS011;1437;53.250;10.406;2022-11-15T05:33:58;15.43;;;9.50;;
2858;SDS011;1437;53.250;10.406;2022-11-15T05:36:29;17.17;;;9.43;;
2858;SDS011;1437;53.250;10.406;2022-11-15T05:38:58;17.93;;;9.70;;
2858;SDS011;1437;53.250;10.406;2022-11-15T05:41:28;17.30;;;10.20;;
2858;SDS011;1437;53.250;10.406;2022-11-15T05:44:01;15.90;;;10.03;;
2858;SDS011;1437;53.250;10.406;2022-11-15T05:46:33;16.63;;;10.07;;
2858;SDS011;1437;53.250;10.406;2022-11-15T05:49:01;17.77;;;9.97;;
2858;SDS011;1437;53.250;10.406;2022-11-15T05:51:29;18.63;;;11.07;;
2858;SDS011;1437;53.250;10.406;2022-11-15T05:53:57;16.87;;;10.40;;
2858;SDS011;1437;53.250;10.406;2022-11-15T05:56:25;20.00;;;10.77;;
2858;SDS011;1437;53.250;10.406;2022-11-15T05:58:58;18.53;;;10.70;;
2858;SDS011;1437;53.250;10.406;2022-11-15T06:01:28;17.37;;;11.27;;
2858;SDS011;1437;53.250;10.406;2022-11-15T06:03:57;13.47;;;9.40;;
2858;SDS011;1437;53.250;10.406;2022-11-15T06:06:27;15.70;;;10.40;;
2858;SDS011;1437;53.250;10.406;2022-11-15T06:08:59;19.97;;;9.77;;
2858;SDS011;1437;53.250;10.406;2022-11-15T06:11:27;18.13;;;10.30;;
2858;SDS011;1437;53.250;10.406;2022-11-15T06:14:00;20.70;;;10.40;;
2858;SDS011;1437;53.250;10.406;2022-11-15T06:16:29;19.13;;;10.93;;
2858;SDS011;1437;53.250;10.406;2022-11-15T06:18:57;14.83;;;9.87;;
2858;SDS011;1437;53.250;10.406;2022-11-15T06:21:25;18.90;;;9.20;;
2858;SDS011;1437;53.250;10.406;2022-11-15T06:23:58;15.43;;;9.80;;
2858;SDS011;1437;53.250;10.406;2022-11-15T06:26:30;17.53;;;10.50;;
2858;SDS011;1437;53.250;10.406;2022-11-15T06:29:00;20.70;;;11.37;;
2858;SDS011;1437;53.250;10.406;2022-11-15T06:31:43;17.60;;;10.47;;
2858;SDS011;1437;53.250;10.406;2022-11-15T06:34:12;15.53;;;10.10;;
2858;SDS011;1437;53.250;10.406;2022-11-15T06:36:46;16.17;;;9.70;;
2858;SDS011;1437;53.250;10.406;2022-11-15T06:39:14;20.47;;;10.17;;
2858;SDS011;1437;53.250;10.406;2022-11-15T06:41:42;17.93;;;10.43;;
2858;SDS011;1437;53.250;10.406;2022-11-15T06:44:10;19.33;;;9.77;;
2858;SDS011;1437;53.250;10.406;2022-11-15T06:46:44;15.90;;;10.40;;
2858;SDS011;1437;53.250;10.406;2022-11-15T06:49:15;14.83;;;9.63;;
2858;SDS011;1437;53.250;10.406;2022-11-15T06:51:43;15.43;;;9.37;;
2858;SDS011;1437;53.250;10.406;2022-11-15T06:54:15;25.70;;;10.80;;
2858;SDS011;1437;53.250;10.406;2022-11-15T06:56:47;19.47;;;11.00;;
2858;SDS011;1437;53.250;10.406;2022-11-15T06:59:14;20.93;;;11.00;;
2858;SDS011;1437;53.250;10.406;2022-11-15T07:01:45;15.70;;;10.00;;
2858;SDS011;1437;53.250;10.406;2022-11-15T07:04:13;16.50;;;10.80;;
2858;SDS011;1437;53.250;10.406;2022-11-15T07:06:42;20.80;;;11.70;;
2858;SDS011;1437;53.250;10.406;2022-11-15T07:09:13;22.90;;;10.77;;
2858;SDS011;1437;53.250;10.406;2022-11-15T07:11:43;15.27;;;10.30;;
2858;SDS011;1437;53.250;10.406;2022-11-15T07:14:11;16.40;;;9.83;;
2858;SDS011;1437;53.250;10.406;2022-11-15T07:16:38;17.50;;;10.70;;
2858;SDS011;1437;53.250;10.406;2022-11-15T07:19:08;29.20;;;17.60;;
2858;SDS011;1437;53.250;10.406;2022-11-15T07:21:36;14.47;;;9.83;;
2858;SDS011;1437;53.250;10.406;2022-11-15T07:24:04;23.43;;;10.67;;
2858;SDS011;1437;53.250;10.406;2022-11-15T07:26:32;17.17;;;11.70;;
2858;SDS011;1437;53.250;10.406;2022-11-15T07:29:00;20.73;;;11.20;;
2858;SDS011;1437;53.250;10.406;2022-11-15T07:31:27;22.70;;;10.37;;
2858;SDS011;1437;53.250;10.406;2022-11-15T07:33:55;17.83;;;11.37;;
2858;SDS011;1437;53.250;10.406;2022-11-15T07:36:25;16.93;;;10.50;;
2858;SDS011;1437;53.250;10.406;2022-11-15T07:38:54;16.43;;;10.73;;
2858;SDS011;1437;53.250;10.406;2022-11-15T07:41:24;16.50;;;10.30;;
2858;SDS011;1437;53.250;10.406;2022-11-15T07:46:43;15.10;;;11.40;;
2858;SDS011;1437;53.250;10.406;2022-11-15T07:49:19;14.53;;;9.33;;
2858;SDS011;1437;53.250;10.406;2022-11-15T07:51:53;14.87;;;10.70;;
2858;SDS011;1437;53.250;10.406;2022-11-15T07:54:26;15.83;;;10.70;;
2858;SDS011;1437;53.250;10.406;2022-11-15T07:57:01;19.90;;;11.10;;
2858;SDS011;1437;53.250;10.406;2022-11-15T07:59:34;17.77;;;10.00;;
2858;SDS011;1437;53.250;10.406;2022-11-15T08:02:10;15.60;;;8.97;;
2858;SDS011;1437;53.250;10.406;2022-11-15T08:04:43;16.10;;;10.50;;
2858;SDS011;1437;53.250;10.406;2022-11-15T08:07:20;14.77;;;9.07;;
2858;SDS011;1437;53.250;10.406;2022-11-15T08:09:48;17.53;;;12.17;;
2858;SDS011;1437;53.250;10.406;2022-11-15T08:12:16;17.10;;;9.53;;
2858;SDS011;1437;53.250;10.406;2022-11-15T08:15:00;16.70;;;9.90;;
2858;SDS011;1437;53.250;10.406;2022-11-15T08:17:36;16.43;;;10.27;;
2858;SDS011;1437;53.250;10.406;2022-11-15T08:20:21;16.10;;;9.03;;
2858;SDS011;1437;53.250;10.406;2022-11-15T08:22:51;16.90;;;9.43;;
2858;SDS011;1437;53.250;10.406;2022-11-15T08:25:29;14.13;;;9.80;;
2858;SDS011;1437;53.250;10.406;2022-11-15T08:28:32;13.70;;;10.00;;
2858;SDS011;1437;53.250;10.406;2022-11-15T08:31:25;21.20;;;11.30;;
2858;SDS011;1437;53.250;10.406;2022-11-15T08:34:10;14.90;;;9.07;;
2858;SDS011;1437;53.250;10.406;2022-11-15T08:36:38;13.63;;;10.37;;
2858;SDS011;1437;53.250;10.406;2022-11-15T08:39:10;13.53;;;9.10;;
2858;SDS011;1437;53.250;10.406;2022-11-15T08:41:39;13.13;;;8.90;;
2858;SDS011;1437;53.250;10.406;2022-11-15T08:44:16;11.60;;;8.57;;
2858;SDS011;1437;53.250;10.406;2022-11-15T08:46:51;19.63;;;10.30;;
2858;SDS011;1437;53.250;10.406;2022-11-15T08:49:20;13.70;;;7.83;;
2858;SDS011;1437;53.250;10.406;2022-11-15T08:51:48;13.27;;;9.57;;
2858;SDS011;1437;53.250;10.406;2022-11-15T08:54:28;16.00;;;9.57;;
2858;SDS011;1437;53.250;10.406;2022-11-15T08:57:06;16.63;;;8.67;;
2858;SDS011;1437;53.250;10.406;2022-11-15T08:59:44;20.73;;;9.17;;
2858;SDS011;1437;53.250;10.406;2022-11-15T09:02:16;17.57;;;9.20;;
2858;SDS011;1437;53.250;10.406;2022-11-15T09:04:51;14.10;;;9.37;;
2858;SDS011;1437;53.250;10.406;2022-11-15T09:07:20;16.00;;;9.93;;
2858;SDS011;1437;53.250;10.406;2022-11-15T09:09:51;13.23;;;9.20;;
2858;SDS011;1437;53.250;10.406;2022-11-15T09:12:19;16.57;;;11.47;;
2858;SDS011;1437;53.250;10.406;2022-11-15T09:14:48;17.97;;;8.80;;
2858;SDS011;1437;53.250;10.406;2022-11-15T09:17:25;17.03;;;9.23;;
2858;SDS011;1437;53.250;10.406;2022-11-15T09:20:26;17.60;;;9.13;;
2858;SDS011;1437;53.250;10.406;2022-11-15T09:22:59;14.00;;;9.27;;
2858;SDS011;1437;53.250;10.406;2022-11-15T09:25:32;15.90;;;10.00;;
2858;SDS011;1437;53.250;10.406;2022-11-15T09:28:05;17.90;;;11.27;;
2858;SDS011;1437;53.250;10.406;2022-11-15T09:30:32;13.10;;;8.90;;
2858;SDS011;1437;53.250;10.406;2022-11-15T09:33:07;14.53;;;9.10;;
2858;SDS011;1437;53.250;10.406;2022-11-15T09:35:49;12.63;;;8.10;;
2858;SDS011;1437;53.250;10.406;2022-11-15T09:38:20;13.97;;;9.67;;
2858;SDS011;1437;53.250;10.406;2022-11-15T09:41:08;17.73;;;9.60;;
2858;SDS011;1437;53.250;10.406;2022-11-15T09:43:42;15.20;;;8.80;;
2858;SDS011;1437;53.250;10.406;2022-11-15T09:46:22;15.53;;;9.47;;
2858;SDS011;1437;53.250;10.406;2022-11-15T09:48:54;15.00;;;9.73;;
2858;SDS011;1437;53.250;10.406;2022-11-15T09:51:27;15.77;;;8.37;;
2858;SDS011;1437;53.250;10.406;2022-11-15T09:53:58;14.17;;;8.83;;
2858;SDS011;1437;53.250;10.406;2022-11-15T09:56:32;12.10;;;8.20;;
2858;SDS011;1437;53.250;10.406;2022-11-15T09:59:05;12.33;;;8.87;;
2858;SDS011;1437;53.250;10.406;2022-11-15T10:01:36;11.57;;;8.47;;
2858;SDS011;1437;53.250;10.406;2022-11-15T10:04:13;16.53;;;8.30;;
2858;SDS011;1437;53.250;10.406;2022-11-15T10:07:02;13.37;;;8.63;;
2858;SDS011;1437;53.250;10.406;2022-11-15T10:09:49;15.70;;;7.50;;
2858;SDS011;1437;53.250;10.406;2022-11-15T10:12:26;18.80;;;7.70;;
2858;SDS011;1437;53.250;10.406;2022-11-15T10:15:00;13.13;;;8.83;;
2858;SDS011;1437;53.250;10.406;2022-11-15T10:20:17;14.47;;;8.20;;
2858;SDS011;1437;53.250;10.406;2022-11-15T10:23:10;12.73;;;7.50;;
2858;SDS011;1437;53.250;10.406;2022-11-15T10:25:51;14.17;;;7.10;;
2858;SDS011;1437;53.250;10.406;2022-11-15T10:28:30;12.00;;;7.70;;
2858;SDS011;1437;53.250;10.406;2022-11-15T10:31:20;10.03;;;7.57;;
2858;SDS011;1437;53.250;10.406;2022-11-15T10:33:59;12.33;;;7.60;;
2858;SDS011;1437;53.250;10.406;2022-11-15T10:36:45;13.10;;;7.33;;
2858;SDS011;1437;53.250;10.406;2022-11-15T10:39:14;13.70;;;8.80;;
2858;SDS011;1437;53.250;10.406;2022-11-15T10:41:52;13.77;;;6.53;;
2858;SDS011;1437;53.250;10.406;2022-11-15T10:44:25;12.30;;;6.77;;
2858;SDS011;1437;53.250;10.406;2022-11-15T10:49:41;14.53;;;11.90;;
2858;SDS011;1437;53.250;10.406;2022-11-15T10:52:22;12.97;;;9.83;;
2858;SDS011;1437;53.250;10.406;2022-11-15T10:54:51;10.83;;;7.23;;
2858;SDS011;1437;53.250;10.406;2022-11-15T10:57:21;10.87;;;6.13;;
2858;SDS011;1437;53.250;10.406;2022-11-15T11:02:36;12.23;;;6.83;;
2858;SDS011;1437;53.250;10.406;2022-11-15T11:05:29;9.23;;;6.20;;
2858;SDS011;1437;53.250;10.406;2022-11-15T11:08:21;10.40;;;6.00;;
2858;SDS011;1437;53.250;10.406;2022-11-15T11:10:53;9.50;;;6.10;;
2858;SDS011;1437;53.250;10.406;2022-11-15T11:13:31;10.03;;;5.40;;
2858;SDS011;1437;53.250;10.406;2022-11-15T11:16:18;9.80;;;6.40;;
2858;SDS011;1437;53.250;10.406;2022-11-15T11:18:55;11.43;;;6.10;;
2858;SDS011;1437;53.250;10.406;2022-11-15T11:21:25;10.17;;;6.57;;
2858;SDS011;1437;53.250;10.406;2022-11-15T11:23:57;8.90;;;5.53;;
2858;SDS011;1437;53.250;10.406;2022-11-15T11:26:35;11.17;;;5.50;;
2858;SDS011;1437;53.250;10.406;2022-11-15T11:29:11;11.83;;;7.00;;
2858;SDS011;1437;53.250;10.406;2022-11-15T11:31:46;13.40;;;6.90;;
2858;SDS011;1437;53.250;10.406;2022-11-15T11:34:25;11.83;;;6.70;;
2858;SDS011;1437;53.250;10.406;2022-11-15T11:37:04;11.83;;;6.27;;
2858;SDS011;1437;53.250;10.406;2022-11-15T11:39:38;10.60;;;6.47;;
2858;SDS011;1437;53.250;10.406;2022-11-15T11:42:13;9.80;;;5.37;;
2858;SDS011;1437;53.250;10.406;2022-11-15T11:44:51;9.57;;;6.70;;
2858;SDS011;1437;53.250;10.406;2022-11-15T11:47:31;14.30;;;8.07;;
2858;SDS011;1437;53.250;10.406;2022-11-15T11:50:02;9.63;;;4.93;;
2858;SDS011;1437;53.250;10.406;2022-11-15T11:52:41;9.17;;;5.97;;
2858;SDS011;1437;53.250;10.406;2022-11-15T11:55:12;20.10;;;9.70;;
2858;SDS011;1437;53.250;10.406;2022-11-15T11:57:43;14.80;;;9.67;;
2858;SDS011;1437;53.250;10.406;2022-11-15T12:00:15;19.10;;;9.77;;
2858;SDS011;1437;53.250;10.406;2022-11-15T12:02:47;15.73;;;8.73;;
2858;SDS011;1437;53.250;10.406;2022-11-15T12:05:22;10.63;;;6.13;;
2858;SDS011;1437;53.250;10.406;2022-11-15T12:07:54;6.37;;;4.87;;
2858;SDS011;1437;53.250;10.406;2022-11-15T12:10:24;9.27;;;6.47;;
2858;SDS011;1437;53.250;10.406;2022-11-15T12:12:55;13.70;;;7.07;;
2858;SDS011;1437;53.250;10.406;2022-11-15T12:15:32;15.33;;;6.73;;
2858;SDS011;1437;53.250;10.406;2022-11-15T12:18:07;7.27;;;5.53;;
2858;SDS011;1437;53.250;10.406;2022-11-15T12:20:39;10.53;;;5.43;;
2858;SDS011;1437;53.250;10.406;2022-11-15T12:23:10;13.43;;;5.80;;
2858;SDS011;1437;53.250;10.406;2022-11-15T12:25:41;7.60;;;5.80;;
2858;SDS011;1437;53.250;10.406;2022-11-15T12:28:34;8.97;;;6.13;;
2858;SDS011;1437;53.250;10.406;2022-11-15T12:31:39;9.93;;;5.83;;
2858;SDS011;1437;53.250;10.406;2022-11-15T12:52:33;10.20;;;6.40;;
2858;SDS011;1437;53.250;10.406;2022-11-15T13:00:44;8.03;;;5.60;;
2858;SDS011;1437;53.250;10.406;2022-11-15T13:03:44;8.57;;;5.70;;
2858;SDS011;1437;53.250;10.406;2022-11-15T13:17:56;14.80;;;5.90;;
2858;SDS011;1437;53.250;10.406;2022-11-15T13:20:44;6.53;;;5.33;;
2858;SDS011;1437;53.250;10.406;2022-11-15T13:23:17;9.40;;;6.23;;
2858;SDS011;1437;53.250;10.406;2022-11-15T13:28:45;9.40;;;5.30;;
2858;SDS011;1437;53.250;10.406;2022-11-15T13:31:34;11.93;;;6.17;;
2858;SDS011;1437;53.250;10.406;2022-11-15T13:34:26;9.33;;;5.70;;
2858;SDS011;1437;53.250;10.406;2022-11-15T13:37:13;9.73;;;6.00;;
2858;SDS011;1437;53.250;10.406;2022-11-15T13:39:57;11.33;;;6.70;;
2858;SDS011;1437;53.250;10.406;2022-11-15T13:42:41;12.30;;;7.60;;
2858;SDS011;1437;53.250;10.406;2022-11-15T13:45:12;12.60;;;7.50;;
2858;SDS011;1437;53.250;10.406;2022-11-15T13:47:47;9.70;;;6.27;;
2858;SDS011;1437;53.250;10.406;2022-11-15T13:50:25;9.30;;;5.97;;
2858;SDS011;1437;53.250;10.406;2022-11-15T13:53:00;8.50;;;5.27;;
2858;SDS011;1437;53.250;10.406;2022-11-15T13:55:31;20.13;;;10.20;;
2858;SDS011;1437;53.250;10.406;2022-11-15T13:58:02;8.17;;;5.20;;
2858;SDS011;1437;53.250;10.406;2022-11-15T14:00:47;8.03;;;6.10;;
2858;SDS011;1437;53.250;10.406;2022-11-15T14:03:19;9.90;;;5.87;;
2858;SDS011;1437;53.250;10.406;2022-11-15T14:06:06;7.87;;;5.00;;
2858;SDS011;1437;53.250;10.406;2022-11-15T14:08:57;8.37;;;5.20;;
2858;SDS011;1437;53.250;10.406;2022-11-15T14:11:35;9.00;;;5.13;;
2858;SDS011;1437;53.250;10.406;2022-11-15T14:14:14;8.63;;;5.53;;
2858;SDS011;1437;53.250;10.406;2022-11-15T14:16:55;10.17;;;7.00;;
2858;SDS011;1437;53.250;10.406;2022-11-15T14:19:47;13.33;;;7.23;;
2858;SDS011;1437;53.250;10.406;2022-11-15T14:22:36;9.77;;;5.40;;
2858;SDS011;1437;53.250;10.406;2022-11-15T14:37:00;6.67;;;5.17;;
2858;SDS011;1437;53.250;10.406;2022-11-15T14:40:05;11.73;;;6.00;;
2858;SDS011;1437;53.250;10.406;2022-11-15T14:42:52;9.30;;;5.70;;
2858;SDS011;1437;53.250;10.406;2022-11-15T14:45:40;7.23;;;5.33;;
2858;SDS011;1437;53.250;10.406;2022-11-15T14:48:30;10.00;;;5.00;;
2858;SDS011;1437;53.250;10.406;2022-11-15T14:51:27;10.37;;;6.80;;
2858;SDS011;1437;53.250;10.406;2022-11-15T14:57:20;10.37;;;5.50;;
2858;SDS011;1437;53.250;10.406;2022-11-15T15:00:04;9.00;;;4.60;;
2858;SDS011;1437;53.250;10.406;2022-11-15T15:03:00;6.60;;;4.80;;
2858;SDS011;1437;53.250;10.406;2022-11-15T15:05:45;12.13;;;6.03;;
2858;SDS011;1437;53.250;10.406;2022-11-15T15:08:14;7.53;;;5.03;;
2858;SDS011;1437;53.250;10.406;2022-11-15T15:10:50;8.50;;;6.23;;
2858;SDS011;1437;53.250;10.406;2022-11-15T15:16:25;9.70;;;5.97;;
2858;SDS011;1437;53.250;10.406;2022-11-15T15:19:27;9.37;;;5.20;;
2858;SDS011;1437;53.250;10.406;2022-11-15T15:22:16;9.13;;;4.90;;
2858;SDS011;1437;53.250;10.406;2022-11-15T15:25:20;9.20;;;5.90;;
2858;SDS011;1437;53.250;10.406;2022-11-15T15:31:20;7.30;;;4.90;;
2858;SDS011;1437;53.250;10.406;2022-11-15T15:40:21;9.30;;;5.80;;
2858;SDS011;1437;53.250;10.406;2022-11-15T15:45:40;18.83;;;12.10;;
2858;SDS011;1437;53.250;10.406;2022-11-15T15:48:36;11.90;;;7.67;;
2858;SDS011;1437;53.250;10.406;2022-11-15T15:51:16;10.70;;;6.60;;
2858;SDS011;1437;53.250;10.406;2022-11-15T15:53:51;16.40;;;6.80;;
2858;SDS011;1437;53.250;10.406;2022-11-15T15:56:29;15.47;;;6.90;;
2858;SDS011;1437;53.250;10.406;2022-11-15T15:59:04;7.60;;;6.63;;
2858;SDS011;1437;53.250;10.406;2022-11-15T16:01:43;11.07;;;6.63;;
2858;SDS011;1437;53.250;10.406;2022-11-15T16:04:28;8.43;;;5.60;;
2858;SDS011;1437;53.250;10.406;2022-11-15T16:07:05;9.37;;;6.70;;
2858;SDS011;1437;53.250;10.406;2022-11-15T16:09:50;13.30;;;6.37;;
2858;SDS011;1437;53.250;10.406;2022-11-15T16:12:50;10.40;;;7.47;;
2858;SDS011;1437;53.250;10.406;2022-11-15T16:15:32;10.40;;;7.10;;
2858;SDS011;1437;53.250;10.406;2022-11-15T16:18:14;13.40;;;7.40;;
2858;SDS011;1437;53.250;10.406;2022-11-15T16:20:57;8.10;;;5.60;;
2858;SDS011;1437;53.250;10.406;2022-11-15T16:23:38;6.57;;;5.30;;
2858;SDS011;1437;53.250;10.406;2022-11-15T16:26:22;8.10;;;6.10;;
2858;SDS011;1437;53.250;10.406;2022-11-15T16:28:54;7.93;;;5.63;;
2858;SDS011;1437;53.250;10.406;2022-11-15T16:31:51;8.67;;;5.73;;
2858;SDS011;1437;53.250;10.406;2022-11-15T16:34:25;13.33;;;7.63;;
2858;SDS011;1437;53.250;10.406;2022-11-15T16:37:02;9.93;;;7.27;;
2858;SDS011;1437;53.250;10.406;2022-11-15T16:39:30;14.67;;;8.53;;
2858;SDS011;1437;53.250;10.406;2022-11-15T16:42:00;20.13;;;11.17;;
2858;SDS011;1437;53.250;10.406;2022-11-15T16:44:43;11.60;;;8.60;;
2858;SDS011;1437;53.250;10.406;2022-11-15T16:47:17;15.60;;;7.27;;
2858;SDS011;1437;53.250;10.406;2022-11-15T16:49:47;18.77;;;7.57;;
2858;SDS011;1437;53.250;10.406;2022-11-15T16:52:36;17.23;;;8.50;;